Aviation Digital Data Service (ADDS)

Output produced by METARs form (0851 UTC 18 February 2019)
found at http://www.aviationweather.gov/metar/data/
 
Forecast for: GMTT (TANGIER/BOUKHALF, MA)
Text: TAF GMTT 180500Z 1806/1912 10006KT 9999 SCT040
Forecast period: 0600 UTC 18 February 2019 to 1200 UTC 19 February 2019
Forecast type: FROM: standard forecast or significant change
Winds: from the E (100 degrees) at 7 MPH (6 knots; 3.1 m/s)
Visibility: 6 or more miles 10+ km)
Ceiling: at least 12,000 feet AGL
Clouds: scattered clouds at 4000 feet AGL
Weather: no significant weather forecast for this period
Text: TEMPO 1809/1815 4000 RA
Forecast period: 0900 to 1500 UTC 18 February 2019
Forecast type: TEMPORARY: The following changes expected for less than half the time period
Visibility: 2.49 miles (4.01 km)
Ceiling: unknown
Clouds: missing
Weather: RA  (moderate rain)
Text: PROB30
Forecast period: 0100 to 0600 UTC 19 February 2019
Forecast type: TEMPORARY: The following changes expected for less than half the time period
Visibility: 2.49 miles (4.01 km)
Ceiling: unknown
Clouds: missing
Weather: BR  (mist)